Time;durP1;ratioP1;P1;durP2;ratioP2;P2;SDS_P1;SDS_P2;PMS_P1;PMS_P2;Temp;Humidity;BMP_temperature;BMP_pressure;BME280_temperature;BME280_humidity;BME280_pressure;Samples;Min_cycle;Max_cycle;Signal;HPM_P1;HPM_P2
2021/07/15 00:01:54;;;;;;;6.93;5.57;;;19.50;99.90;;;;;;5032195;28;20025;-83
2021/07/15 00:04:20;;;;;;;8.02;5.93;;;19.50;99.90;;;;;;5032694;28;20033;-84
2021/07/15 00:06:46;;;;;;;6.07;5.38;;;19.40;99.90;;;;;;5030707;28;20079;-77
2021/07/15 00:09:13;;;;;;;7.60;5.60;;;19.40;99.90;;;;;;5019788;28;20487;-79
2021/07/15 00:11:44;;;;;;;6.28;5.68;;;19.30;99.90;;;;;;5017530;28;20030;-83
2021/07/15 00:14:10;;;;;;;6.40;5.78;;;19.30;99.90;;;;;;5032447;28;20041;-83
2021/07/15 00:16:36;;;;;;;7.43;6.07;;;19.30;99.90;;;;;;5032386;28;20112;-83
2021/07/15 00:19:03;;;;;;;7.28;5.75;;;19.30;99.90;;;;;;5014284;28;20056;-82
2021/07/15 00:21:30;;;;;;;6.28;5.57;;;19.30;99.90;;;;;;5032024;28;20026;-79
2021/07/15 00:23:56;;;;;;;6.20;5.55;;;19.30;99.90;;;;;;5032009;28;20021;-80
2021/07/15 00:26:24;;;;;;;6.80;6.10;;;19.30;99.90;;;;;;5032120;28;20029;-80
2021/07/15 00:28:50;;;;;;;10.27;6.07;;;19.30;99.90;;;;;;5031746;28;20362;-80
2021/07/15 00:31:15;;;;;;;6.25;5.65;;;19.40;99.90;;;;;;5031713;28;20507;-80
2021/07/15 00:33:42;;;;;;;6.15;5.53;;;19.30;99.90;;;;;;5031766;28;20072;-80
2021/07/15 00:36:08;;;;;;;6.85;5.70;;;19.30;99.90;;;;;;5031981;28;20354;-80
2021/07/15 00:38:35;;;;;;;6.60;5.60;;;19.30;99.90;;;;;;5014063;28;20053;-80
2021/07/15 00:41:01;;;;;;;6.55;5.95;;;19.30;99.90;;;;;;5031849;28;20366;-80
2021/07/15 00:43:27;;;;;;;7.00;5.85;;;19.30;99.90;;;;;;5031676;28;20029;-80
2021/07/15 00:45:53;;;;;;;8.73;6.20;;;19.30;99.90;;;;;;5031902;28;20021;-86
2021/07/15 00:48:19;;;;;;;6.28;5.55;;;19.40;99.90;;;;;;5032480;28;20057;-87
2021/07/15 00:50:45;;;;;;;6.30;5.72;;;19.40;99.90;;;;;;5032025;28;20489;-87
2021/07/15 00:53:13;;;;;;;7.40;6.25;;;19.40;99.90;;;;;;5032439;28;20021;-88
2021/07/15 00:55:44;;;;;;;7.18;6.20;;;19.40;99.90;;;;;;5019273;28;20029;-89
2021/07/15 00:58:12;;;;;;;7.38;6.00;;;19.40;99.90;;;;;;5020048;28;20021;-86
2021/07/15 01:00:40;;;;;;;6.78;5.88;;;19.40;99.90;;;;;;5032873;28;20030;-89
2021/07/15 01:03:07;;;;;;;7.03;6.18;;;19.40;99.90;;;;;;5033132;28;20017;-89
2021/07/15 01:05:37;;;;;;;6.50;5.70;;;19.50;99.90;;;;;;5032872;28;20030;-90
2021/07/15 01:08:05;;;;;;;6.78;6.00;;;19.50;99.90;;;;;;5015052;28;20013;-87
2021/07/15 01:10:34;;;;;;;6.97;6.28;;;19.50;99.90;;;;;;5031935;28;20204;-87
2021/07/15 01:13:33;;;;;;;9.48;6.32;;;19.50;99.90;;;;;;5032486;28;20247;-87
2021/07/15 01:16:28;;;;;;;8.20;6.40;;;19.60;99.90;;;;;;5021916;28;20029;-88
2021/07/15 01:53:53;;;;;;;10.57;8.20;;;19.30;99.90;;;;;;4929491;23;19923;-72
2021/07/15 01:56:20;;;;;;;8.88;7.68;;;19.30;99.90;;;;;;4918350;29;20028;-68
2021/07/15 01:58:48;;;;;;;9.23;7.68;;;19.30;99.90;;;;;;4918782;29;20127;-68
2021/07/15 02:01:14;;;;;;;8.40;7.57;;;19.30;99.90;;;;;;4918406;29;20478;-68
2021/07/15 02:03:47;;;;;;;9.30;8.43;;;19.40;99.90;;;;;;4918411;29;20028;-68
2021/07/15 02:06:14;;;;;;;8.88;7.97;;;19.40;99.90;;;;;;4893389;29;20484;-68
2021/07/15 02:08:42;;;;;;;8.40;7.70;;;19.30;99.90;;;;;;4913461;29;20028;-68
2021/07/15 02:11:09;;;;;;;9.73;7.97;;;19.30;99.90;;;;;;4918082;29;20115;-68
2021/07/15 02:13:36;;;;;;;8.75;7.93;;;19.30;99.90;;;;;;4918182;29;20039;-68
2021/07/15 02:16:03;;;;;;;9.63;8.63;;;19.40;99.90;;;;;;4904745;29;20031;-68
2021/07/15 02:18:29;;;;;;;9.45;8.45;;;19.40;99.90;;;;;;4918234;29;20111;-68
2021/07/15 02:20:57;;;;;;;7.90;7.10;;;19.40;99.90;;;;;;4905165;29;20145;-68
2021/07/15 02:23:23;;;;;;;7.88;7.07;;;19.40;99.90;;;;;;4917772;29;20028;-68
2021/07/15 02:25:51;;;;;;;8.43;7.63;;;19.40;99.90;;;;;;4918017;29;20040;-68
2021/07/15 02:28:20;;;;;;;8.20;7.40;;;19.30;99.90;;;;;;4917927;29;20432;-68
2021/07/15 02:30:48;;;;;;;8.82;8.02;;;19.30;99.90;;;;;;4918032;29;20044;-68
2021/07/15 02:33:17;;;;;;;9.23;7.75;;;19.30;99.90;;;;;;4917757;29;20455;-68
2021/07/15 02:35:48;;;;;;;9.73;8.57;;;19.30;99.90;;;;;;4917324;29;20060;-68
2021/07/15 02:38:17;;;;;;;8.52;7.72;;;19.30;99.90;;;;;;4917737;29;20440;-68
2021/07/15 02:40:44;;;;;;;8.25;7.32;;;19.30;99.90;;;;;;4917761;29;20029;-68
2021/07/15 02:43:09;;;;;;;7.75;6.95;;;19.40;99.90;;;;;;4917616;29;20040;-68
2021/07/15 02:45:35;;;;;;;7.93;7.13;;;19.50;99.90;;;;;;4918068;29;20122;-68
2021/07/15 02:48:01;;;;;;;8.85;7.95;;;19.40;99.90;;;;;;4917867;29;20060;-68
2021/07/15 02:50:27;;;;;;;7.82;7.03;;;19.40;99.90;;;;;;4917838;29;20028;-68
2021/07/15 02:52:55;;;;;;;10.13;7.68;;;19.40;99.90;;;;;;4905519;29;20041;-68
2021/07/15 02:55:22;;;;;;;9.15;7.07;;;19.40;99.90;;;;;;4898843;29;20032;-68
2021/07/15 02:58:14;;;;;;;9.02;8.05;;;19.40;99.90;;;;;;4898574;29;20025;-68
2021/07/15 03:01:01;;;;;;;8.15;7.45;;;19.40;99.90;;;;;;4898964;29;20489;-68
2021/07/15 03:03:47;;;;;;;7.57;6.88;;;19.40;99.90;;;;;;4898435;29;20024;-68
2021/07/15 03:06:17;;;;;;;7.72;7.05;;;19.40;99.90;;;;;;4898460;29;20021;-68
2021/07/15 03:08:58;;;;;;;7.22;6.60;;;19.40;99.90;;;;;;4898591;29;20031;-68
2021/07/15 03:11:33;;;;;;;7.55;6.85;;;19.40;99.90;;;;;;4898315;29;20048;-68
2021/07/15 03:14:01;;;;;;;6.78;6.18;;;19.60;99.90;;;;;;4898567;29;20028;-68
2021/07/15 03:16:28;;;;;;;6.93;6.30;;;19.60;99.90;;;;;;4898118;29;20556;-68
2021/07/15 03:18:57;;;;;;;8.05;6.88;;;19.70;99.90;;;;;;4898196;29;20028;-69
2021/07/15 03:21:24;;;;;;;7.15;6.55;;;19.70;99.90;;;;;;4898283;29;20089;-68
2021/07/15 03:23:54;;;;;;;6.75;6.13;;;19.70;99.90;;;;;;4897865;29;20560;-68
2021/07/15 03:26:21;;;;;;;8.00;7.20;;;19.70;99.90;;;;;;4897862;29;20032;-68
2021/07/15 03:28:48;;;;;;;7.65;6.82;;;19.70;99.90;;;;;;4898157;29;20033;-68
2021/07/15 03:31:16;;;;;;;7.43;6.70;;;19.70;99.90;;;;;;4897702;29;20048;-68
2021/07/15 03:33:42;;;;;;;7.30;6.60;;;19.70;99.90;;;;;;4897871;29;20029;-68
2021/07/15 03:36:09;;;;;;;7.93;7.22;;;19.60;99.90;;;;;;4897498;29;20032;-68
2021/07/15 03:38:39;;;;;;;7.22;6.55;;;19.60;99.90;;;;;;4897735;29;20036;-68
2021/07/15 03:41:05;;;;;;;;;;;19.70;99.90;;;;;;4897989;29;20594;-68
2021/07/15 03:43:33;;;;;;;7.63;6.93;;;19.70;99.90;;;;;;4897410;29;20002;-68
2021/07/15 03:46:00;;;;;;;10.10;7.03;;;19.70;99.90;;;;;;4897604;29;20024;-68
2021/07/15 03:48:27;;;;;;;8.93;7.38;;;19.70;99.90;;;;;;4897329;29;20029;-68
2021/07/15 03:51:01;;;;;;;8.23;6.95;;;19.70;99.90;;;;;;4897988;29;20499;-68
2021/07/15 03:53:28;;;;;;;7.30;6.68;;;19.70;99.90;;;;;;4880282;29;20045;-68
2021/07/15 03:55:55;;;;;;;11.13;7.55;;;19.70;99.90;;;;;;4897450;29;20115;-68
2021/07/15 03:58:22;;;;;;;7.97;7.18;;;19.70;99.90;;;;;;4897439;29;20039;-68
2021/07/15 04:00:50;;;;;;;9.05;6.97;;;19.60;99.90;;;;;;4897119;29;20031;-68
2021/07/15 04:03:21;;;;;;;7.25;6.65;;;19.70;99.90;;;;;;4897218;29;20029;-68
2021/07/15 04:05:50;;;;;;;8.00;7.20;;;19.70;99.90;;;;;;4897376;29;20040;-68
2021/07/15 04:08:22;;;;;;;8.40;7.47;;;19.60;99.90;;;;;;4896955;29;20032;-68
2021/07/15 04:10:50;;;;;;;9.35;7.95;;;19.60;99.90;;;;;;4897642;29;20044;-68
2021/07/15 04:13:16;;;;;;;8.38;7.07;;;19.60;99.90;;;;;;4897325;29;20036;-68
2021/07/15 04:15:51;;;;;;;8.27;7.43;;;19.60;99.90;;;;;;4897263;29;20029;-68
2021/07/15 04:18:25;;;;;;;8.20;6.95;;;19.60;99.90;;;;;;4897051;29;20056;-68
2021/07/15 04:20:52;;;;;;;8.52;7.10;;;19.60;99.90;;;;;;4897506;29;20044;-68
2021/07/15 04:23:19;;;;;;;8.27;7.47;;;19.60;99.90;;;;;;4896905;29;20181;-68
2021/07/15 04:25:50;;;;;;;8.70;7.32;;;19.60;99.90;;;;;;4896992;29;20060;-68
2021/07/15 04:28:16;;;;;;;7.88;7.18;;;19.60;99.90;;;;;;4896927;29;20104;-68
2021/07/15 04:30:50;;;;;;;7.78;6.97;;;19.60;99.90;;;;;;4897103;29;20100;-69
2021/07/15 04:33:17;;;;;;;7.40;6.70;;;19.70;99.90;;;;;;4896700;29;20027;-70
2021/07/15 04:35:43;;;;;;;7.93;7.13;;;19.70;99.90;;;;;;4897113;29;20028;-68
2021/07/15 04:38:10;;;;;;;7.18;4.85;;;19.70;99.90;;;;;;4896798;29;20388;-73
2021/07/15 04:40:36;;;;;;;7.03;6.20;;;19.90;99.90;;;;;;4897077;29;20032;-77
2021/07/15 04:43:08;;;;;;;6.72;6.13;;;20.30;99.90;;;;;;4896601;29;20490;-74
2021/07/15 04:45:38;;;;;;;8.93;7.18;;;20.20;99.90;;;;;;4896470;29;20031;-71
2021/07/15 04:48:04;;;;;;;7.78;6.80;;;20.20;99.90;;;;;;4896701;29;20120;-78
2021/07/15 04:50:34;;;;;;;7.60;6.90;;;20.10;99.90;;;;;;4883690;29;20365;-74
2021/07/15 04:53:04;;;;;;;7.03;6.32;;;20.10;99.90;;;;;;4897426;29;20048;-75
2021/07/15 04:55:31;;;;;;;7.53;6.93;;;20.20;99.90;;;;;;4881735;29;20032;-76
2021/07/15 04:57:58;;;;;;;8.95;7.10;;;20.20;99.90;;;;;;4895750;29;20477;-74
2021/07/15 05:00:26;;;;;;;8.25;6.38;;;20.20;99.90;;;;;;4896047;29;20036;-74
2021/07/15 05:03:21;;;;;;;11.27;7.13;;;20.10;99.90;;;;;;4896070;29;20017;-81
2021/07/15 05:05:47;;;;;;;8.15;7.10;;;20.20;99.90;;;;;;4884121;29;20044;-80
2021/07/15 05:08:13;;;;;;;7.50;6.80;;;20.20;99.90;;;;;;4896143;29;20024;-81
2021/07/15 05:10:42;;;;;;;10.40;7.38;;;20.10;99.90;;;;;;4896361;29;20064;-81
2021/07/15 05:13:07;;;;;;;7.75;7.03;;;20.20;99.90;;;;;;4892034;29;20036;-81
2021/07/15 05:15:33;;;;;;;6.97;6.28;;;20.40;99.90;;;;;;4896169;29;20025;-78
2021/07/15 05:17:59;;;;;;;13.80;7.40;;;20.40;99.90;;;;;;4896436;29;20076;-75
2021/07/15 05:20:24;;;;;;;7.97;7.13;;;20.30;99.90;;;;;;4879692;29;20036;-75
2021/07/15 05:22:50;;;;;;;8.10;7.38;;;20.30;99.90;;;;;;4896311;29;20032;-76
2021/07/15 05:25:16;;;;;;;8.95;7.00;;;20.20;99.90;;;;;;4896577;29;20039;-75
2021/07/15 05:27:41;;;;;;;7.63;6.78;;;20.30;99.90;;;;;;4896634;29;20021;-76
2021/07/15 05:30:08;;;;;;;8.43;7.25;;;20.30;99.90;;;;;;4896141;29;20384;-75
2021/07/15 05:32:35;;;;;;;10.02;7.13;;;20.30;99.90;;;;;;4896209;29;20066;-76
2021/07/15 05:35:01;;;;;;;7.97;7.18;;;20.20;99.90;;;;;;4896268;29;20025;-75
2021/07/15 05:37:27;;;;;;;7.82;7.03;;;20.20;99.90;;;;;;4896477;29;20048;-76
2021/07/15 05:39:53;;;;;;;9.80;7.15;;;20.20;99.90;;;;;;4896245;29;20031;-76
2021/07/15 05:42:19;;;;;;;8.20;6.18;;;20.30;99.90;;;;;;4896116;29;20458;-75
2021/07/15 05:44:44;;;;;;;7.03;6.43;;;20.30;99.90;;;;;;4896357;29;20028;-79
2021/07/15 05:47:10;;;;;;;11.30;8.30;;;20.60;99.90;;;;;;4896423;29;20024;-75
2021/07/15 05:49:37;;;;;;;8.43;7.50;;;20.60;99.90;;;;;;4876386;29;20186;-77
2021/07/15 05:52:08;;;;;;;8.63;7.82;;;20.60;99.90;;;;;;4894023;29;20056;-78
2021/07/15 05:54:34;;;;;;;8.93;7.60;;;20.50;99.90;;;;;;4894801;29;20025;-78
2021/07/15 05:57:00;;;;;;;8.45;7.30;;;20.50;99.90;;;;;;4896247;29;20063;-78
2021/07/15 05:59:26;;;;;;;7.97;7.20;;;20.50;99.90;;;;;;4895246;29;20052;-78
2021/07/15 06:01:52;;;;;;;11.00;7.00;;;20.50;99.90;;;;;;4895703;29;20033;-78
2021/07/15 06:04:17;;;;;;;7.65;6.78;;;20.50;99.90;;;;;;4895608;29;20031;-78
2021/07/15 06:06:43;;;;;;;7.43;6.47;;;20.50;99.90;;;;;;4896055;29;20125;-78
2021/07/15 06:09:09;;;;;;;8.25;6.53;;;20.50;99.90;;;;;;4895342;29;20464;-77
2021/07/15 06:11:34;;;;;;;8.80;6.80;;;20.50;99.90;;;;;;4882089;29;20040;-78
2021/07/15 06:14:00;;;;;;;7.95;6.53;;;20.60;99.90;;;;;;4898574;29;20132;-79
2021/07/15 06:16:26;;;;;;;9.98;6.57;;;20.70;99.90;;;;;;4899063;29;20052;-79
2021/07/15 06:18:52;;;;;;;7.40;6.63;;;20.50;99.90;;;;;;4899014;29;20397;-78
2021/07/15 06:21:18;;;;;;;11.65;7.05;;;20.50;99.90;;;;;;4911276;29;20025;-76
2021/07/15 06:23:45;;;;;;;7.22;6.43;;;20.60;99.90;;;;;;4898877;29;20103;-78
2021/07/15 06:26:11;;;;;;;7.00;6.35;;;20.60;99.90;;;;;;4898955;29;20052;-78
2021/07/15 06:28:37;;;;;;;8.00;6.38;;;20.70;99.90;;;;;;4898745;29;20048;-81
2021/07/15 06:31:03;;;;;;;8.68;7.05;;;20.70;99.90;;;;;;4896755;29;20075;-79
2021/07/15 06:33:29;;;;;;;6.97;6.38;;;20.70;99.90;;;;;;4890587;29;20024;-79
2021/07/15 06:35:55;;;;;;;6.85;6.15;;;20.70;99.90;;;;;;4898609;29;20031;-82
2021/07/15 06:38:21;;;;;;;9.32;6.32;;;20.60;99.90;;;;;;4898732;29;20076;-76
2021/07/15 06:40:55;;;;;;;7.95;7.05;;;20.60;99.90;;;;;;4898410;29;20503;-77
2021/07/15 06:43:21;;;;;;;8.27;7.40;;;20.60;99.90;;;;;;4898242;29;20028;-77
2021/07/15 06:45:46;;;;;;;8.77;6.68;;;20.60;99.90;;;;;;4898577;29;20467;-76
2021/07/15 06:48:12;;;;;;;7.80;7.10;;;20.50;99.90;;;;;;4891788;29;20028;-77
2021/07/15 06:50:38;;;;;;;9.48;7.18;;;20.50;99.90;;;;;;4897437;29;20033;-80
2021/07/15 06:53:04;;;;;;;8.75;7.18;;;20.50;99.90;;;;;;4898067;29;20428;-76
2021/07/15 06:55:30;;;;;;;7.78;7.07;;;20.60;99.90;;;;;;4907580;29;20088;-74
2021/07/15 06:57:56;;;;;;;7.97;7.25;;;20.70;99.90;;;;;;4898476;29;20433;-75
2021/07/15 07:00:22;;;;;;;8.18;7.38;;;20.70;99.90;;;;;;4897962;29;20025;-75
2021/07/15 07:02:49;;;;;;;8.15;7.20;;;20.80;99.90;;;;;;4881623;29;20067;-74
2021/07/15 07:05:15;;;;;;;7.72;6.93;;;20.80;99.90;;;;;;4898207;29;20021;-78
2021/07/15 07:07:42;;;;;;;6.72;5.80;;;21.10;99.90;;;;;;4898796;29;20033;-75
2021/07/15 07:10:10;;;;;;;6.85;5.45;;;21.30;99.90;;;;;;4897681;29;20100;-78
2021/07/15 07:12:37;;;;;;;7.75;6.18;;;21.50;99.90;;;;;;4898311;29;20067;-80
2021/07/15 07:15:08;;;;;;;7.68;6.90;;;21.80;99.90;;;;;;4898094;29;20029;-81
2021/07/15 07:17:34;;;;;;;8.98;6.63;;;21.90;99.90;;;;;;4898195;29;20025;-78
2021/07/15 07:20:00;;;;;;;7.82;6.25;;;21.80;99.90;;;;;;4897905;29;20025;-84
2021/07/15 07:22:26;;;;;;;7.78;7.07;;;21.70;99.90;;;;;;4897402;29;20027;-75
2021/07/15 07:24:51;;;;;;;7.18;6.57;;;21.60;99.90;;;;;;4897740;29;20029;-81
2021/07/15 07:27:17;;;;;;;7.55;6.47;;;21.50;99.90;;;;;;4897441;29;20035;-81
2021/07/15 07:29:43;;;;;;;8.38;6.57;;;21.50;99.90;;;;;;4897290;29;20044;-79
2021/07/15 07:32:08;;;;;;;8.32;6.65;;;21.60;99.90;;;;;;4897787;29;20032;-73
2021/07/15 07:34:34;;;;;;;7.38;6.53;;;21.80;99.90;;;;;;4897492;29;20025;-72
2021/07/15 07:37:00;;;;;;;8.60;6.90;;;21.70;99.90;;;;;;4897638;29;20116;-71
2021/07/15 07:39:26;;;;;;;7.80;7.00;;;21.70;99.90;;;;;;4897559;29;20033;-71
2021/07/15 07:41:52;;;;;;;7.70;6.88;;;21.60;99.90;;;;;;4897758;29;20017;-71
2021/07/15 07:44:18;;;;;;;6.97;6.38;;;21.50;99.90;;;;;;4897790;29;20029;-71
2021/07/15 07:46:44;;;;;;;7.60;6.90;;;21.50;99.90;;;;;;4897673;29;20048;-71
2021/07/15 07:49:10;;;;;;;8.07;7.15;;;21.50;99.90;;;;;;4897612;29;20062;-71
2021/07/15 07:51:36;;;;;;;8.27;7.20;;;21.40;99.90;;;;;;4897293;29;20497;-70
2021/07/15 07:54:03;;;;;;;9.15;6.88;;;21.40;99.90;;;;;;4897793;29;20041;-71
2021/07/15 07:56:28;;;;;;;7.80;6.95;;;21.40;99.90;;;;;;4897132;29;20392;-69
2021/07/15 07:58:54;;;;;;;11.18;6.40;;;21.40;99.90;;;;;;4897373;29;20025;-70
2021/07/15 08:01:21;;;;;;;7.70;7.00;;;21.50;99.90;;;;;;4897211;29;20096;-70
2021/07/15 08:03:47;;;;;;;7.55;6.65;;;21.70;99.90;;;;;;4897436;29;20024;-70
2021/07/15 08:06:14;;;;;;;10.95;6.60;;;21.70;99.90;;;;;;4897720;29;20028;-70
2021/07/15 08:08:40;;;;;;;6.88;6.28;;;21.70;99.90;;;;;;4896984;29;20064;-71
2021/07/15 08:11:07;;;;;;;6.70;6.10;;;21.70;99.90;;;;;;4897354;29;20036;-70
2021/07/15 08:13:33;;;;;;;7.30;6.60;;;21.80;99.90;;;;;;4897335;29;20111;-70
2021/07/15 08:15:59;;;;;;;8.18;7.35;;;21.80;99.90;;;;;;4897088;29;20091;-70
2021/07/15 08:18:25;;;;;;;8.93;6.35;;;21.80;99.90;;;;;;4897149;29;20448;-70
2021/07/15 08:20:51;;;;;;;7.78;6.13;;;21.80;99.90;;;;;;4897322;29;20033;-70
2021/07/15 08:23:16;;;;;;;7.60;6.10;;;21.80;99.90;;;;;;4897263;29;20108;-70
2021/07/15 08:25:42;;;;;;;6.35;5.72;;;21.80;99.90;;;;;;4897277;29;20032;-70
2021/07/15 08:28:08;;;;;;;6.93;6.13;;;21.80;99.90;;;;;;4896951;29;20477;-70
2021/07/15 08:30:35;;;;;;;5.93;5.43;;;21.80;99.90;;;;;;4879916;29;20448;-70
2021/07/15 08:33:02;;;;;;;5.90;5.40;;;21.80;99.90;;;;;;4896360;29;20039;-70
2021/07/15 08:35:28;;;;;;;5.85;5.35;;;21.80;99.90;;;;;;4897214;29;20506;-70
2021/07/15 08:37:57;;;;;;;6.05;5.50;;;21.80;99.90;;;;;;4897033;29;20099;-70
2021/07/15 08:40:24;;;;;;;6.57;5.97;;;21.80;99.90;;;;;;4896465;29;20076;-70
2021/07/15 08:42:51;;;;;;;5.80;5.30;;;21.80;99.90;;;;;;4896779;29;20033;-70
2021/07/15 08:45:16;;;;;;;7.95;5.40;;;21.80;99.90;;;;;;4896902;29;20032;-70
2021/07/15 08:47:43;;;;;;;6.43;5.22;;;21.80;99.90;;;;;;4896517;29;20533;-70
2021/07/15 08:50:11;;;;;;;6.18;5.43;;;21.90;99.90;;;;;;4896619;29;20755;-70
2021/07/15 08:52:38;;;;;;;6.18;5.57;;;21.90;99.90;;;;;;4896435;29;20070;-70
2021/07/15 08:57:36;;;;;;;6.10;4.82;;;21.90;99.90;;;;;;4896708;29;20499;-70
2021/07/15 09:00:06;;;;;;;6.90;5.10;;;21.90;99.90;;;;;;4896493;29;20044;-70
2021/07/15 09:02:33;;;;;;;6.10;5.20;;;22.00;99.90;;;;;;4894949;29;20051;-70
2021/07/15 09:04:59;;;;;;;5.55;5.05;;;22.00;99.90;;;;;;4896716;29;20032;-70
2021/07/15 09:07:26;;;;;;;7.53;5.25;;;22.00;99.90;;;;;;4896232;29;20037;-70
2021/07/15 09:09:53;;;;;;;8.73;5.13;;;22.00;99.90;;;;;;4896807;29;20123;-70
2021/07/15 09:12:19;;;;;;;5.25;4.65;;;22.00;99.90;;;;;;4896676;29;20064;-70
2021/07/15 09:14:47;;;;;;;5.10;4.60;;;22.00;99.90;;;;;;4896117;29;20028;-70
2021/07/15 09:17:14;;;;;;;5.43;4.80;;;22.00;99.90;;;;;;4896213;29;20124;-70
2021/07/15 09:19:42;;;;;;;5.30;4.80;;;22.00;99.90;;;;;;4896226;29;20369;-70
2021/07/15 09:22:13;;;;;;;5.82;5.30;;;22.10;99.90;;;;;;4896385;29;20028;-70
2021/07/15 09:24:41;;;;;;;6.10;5.40;;;22.10;99.90;;;;;;4896269;29;20020;-71
2021/07/15 09:27:24;;;;;;;5.65;5.10;;;22.10;99.90;;;;;;4896243;29;20043;-70
2021/07/15 09:30:12;;;;;;;5.80;5.00;;;22.20;99.90;;;;;;4896340;29;20489;-71
2021/07/15 09:32:49;;;;;;;10.65;5.60;;;22.20;99.90;;;;;;4895199;29;20505;-70
2021/07/15 09:35:26;;;;;;;6.18;4.97;;;22.20;99.90;;;;;;4896211;29;20032;-70
2021/07/15 09:37:56;;;;;;;7.45;5.30;;;22.40;99.90;;;;;;4896361;29;20515;-70
2021/07/15 09:40:41;;;;;;;5.40;4.40;;;22.50;99.90;;;;;;4895933;29;20016;-71
2021/07/15 09:43:20;;;;;;;5.00;4.50;;;22.60;99.90;;;;;;4896269;29;20025;-72
2021/07/15 09:45:49;;;;;;;5.15;4.40;;;22.70;99.90;;;;;;4900111;29;20571;-71
2021/07/15 09:48:22;;;;;;;4.50;4.10;;;22.80;99.90;;;;;;4899782;29;20036;-71
2021/07/15 09:50:50;;;;;;;5.10;4.60;;;22.90;99.90;;;;;;4899774;29;20090;-71
2021/07/15 09:53:21;;;;;;;5.70;4.68;;;23.00;99.90;;;;;;4899315;29;20113;-71
2021/07/15 09:55:48;;;;;;;6.00;4.43;;;23.10;99.90;;;;;;4899861;29;20029;-70
2021/07/15 09:58:15;;;;;;;8.10;4.15;;;23.20;99.90;;;;;;4900012;29;20111;-70
2021/07/15 10:00:45;;;;;;;4.45;4.00;;;23.30;99.90;;;;;;4899376;29;20031;-71
2021/07/15 10:03:13;;;;;;;5.90;4.47;;;23.50;99.90;;;;;;4899211;29;20043;-71
2021/07/15 10:05:53;;;;;;;5.43;4.00;;;23.70;99.90;;;;;;4898765;29;20056;-71
2021/07/15 10:08:25;;;;;;;4.57;4.00;;;23.80;99.90;;;;;;4897778;29;20037;-70
2021/07/15 10:10:51;;;;;;;9.02;4.25;;;24.00;99.90;;;;;;4896029;29;20032;-70
2021/07/15 10:13:19;;;;;;;11.25;4.40;;;24.20;99.90;;;;;;4898756;29;20031;-70
2021/07/15 10:15:47;;;;;;;4.82;3.50;;;24.30;99.90;;;;;;4898204;29;20027;-73
2021/07/15 10:18:13;;;;;;;6.75;3.65;;;24.40;99.90;;;;;;4900499;29;20027;-71
2021/07/15 10:21:00;;;;;;;3.80;3.40;;;24.50;99.90;;;;;;4898645;29;20028;-71
2021/07/15 10:23:41;;;;;;;8.05;3.33;;;24.60;99.90;;;;;;4907590;29;20028;-72
2021/07/15 10:26:10;;;;;;;4.18;2.80;;;24.70;99.90;;;;;;4899215;29;20052;-71
2021/07/15 10:28:36;;;;;;;2.72;2.53;;;24.70;99.90;;;;;;4902585;29;20091;-72
2021/07/15 10:31:07;;;;;;;6.75;2.72;;;24.80;99.90;;;;;;4898667;29;20040;-72
2021/07/15 10:33:33;;;;;;;2.70;2.40;;;24.80;99.90;;;;;;4898749;29;20036;-73
2021/07/15 10:36:02;;;;;;;5.53;2.70;;;24.90;99.90;;;;;;4898485;29;20025;-72
2021/07/15 10:38:30;;;;;;;3.30;3.00;;;25.00;99.90;;;;;;4898085;29;20501;-74
2021/07/15 10:40:57;;;;;;;14.70;3.28;;;25.10;99.90;;;;;;4898141;29;20157;-73
2021/07/15 10:43:24;;;;;;;3.90;2.80;;;25.20;99.90;;;;;;4891720;29;20059;-73
2021/07/15 10:45:57;;;;;;;3.72;2.85;;;25.20;99.90;;;;;;4896596;29;20091;-74
2021/07/15 10:48:25;;;;;;;3.28;2.90;;;25.40;99.90;;;;;;4898940;29;20029;-73
2021/07/15 10:50:51;;;;;;;5.72;2.80;;;25.50;99.90;;;;;;4895463;29;20041;-73
2021/07/15 10:53:18;;;;;;;4.45;2.97;;;25.60;99.60;;;;;;4902673;29;20529;-73
2021/07/15 10:55:45;;;;;;;5.10;2.78;;;25.70;99.20;;;;;;4892082;29;20539;-72
2021/07/15 10:58:11;;;;;;;4.60;2.97;;;25.70;98.20;;;;;;4898299;29;20036;-73
2021/07/15 11:00:49;;;;;;;5.93;2.95;;;25.70;97.70;;;;;;4898206;29;20503;-73
2021/07/15 11:03:23;;;;;;;4.65;2.80;;;25.80;97.80;;;;;;4898812;29;20032;-73
2021/07/15 11:05:58;;;;;;;9.07;3.35;;;25.90;96.50;;;;;;4879045;29;20024;-73
2021/07/15 11:08:48;;;;;;;3.55;2.55;;;26.00;96.60;;;;;;4898134;29;20029;-74
2021/07/15 11:11:15;;;;;;;2.97;2.53;;;26.10;95.20;;;;;;4898115;29;20092;-72
2021/07/15 11:13:42;;;;;;;8.07;2.90;;;26.10;96.20;;;;;;4897844;29;20021;-71
2021/07/15 11:16:08;;;;;;;5.28;3.20;;;26.10;96.30;;;;;;4898608;29;20076;-72
2021/07/15 11:18:41;;;;;;;6.13;3.25;;;26.10;95.70;;;;;;4897755;29;20064;-70
2021/07/15 11:21:32;;;;;;;5.97;2.70;;;26.20;95.40;;;;;;4905518;29;20035;-71
2021/07/15 11:24:04;;;;;;;5.75;3.17;;;26.20;95.70;;;;;;4897522;29;20091;-71
2021/07/15 11:26:37;;;;;;;4.07;2.80;;;26.10;95.70;;;;;;4905678;29;20059;-71
2021/07/15 11:29:04;;;;;;;4.05;3.20;;;26.10;95.20;;;;;;4897854;29;20035;-71
2021/07/15 11:31:57;;;;;;;5.47;3.80;;;26.10;96.10;;;;;;4889425;29;20040;-72
2021/07/15 11:34:40;;;;;;;9.25;3.40;;;26.10;96.40;;;;;;4894023;29;20519;-72
2021/07/15 11:37:35;;;;;;;5.60;3.10;;;26.10;95.90;;;;;;4897837;29;20527;-73
2021/07/15 11:40:22;;;;;;;3.20;2.72;;;26.20;96.20;;;;;;4885084;29;20036;-74
2021/07/15 11:42:48;;;;;;;4.00;3.10;;;26.20;96.10;;;;;;4908720;29;20496;-70
2021/07/15 11:45:14;;;;;;;8.88;3.70;;;26.20;96.30;;;;;;4897567;29;20036;-72
2021/07/15 11:47:42;;;;;;;6.60;2.78;;;26.20;95.20;;;;;;4897761;29;20027;-70
2021/07/15 11:50:27;;;;;;;6.38;2.75;;;26.30;94.90;;;;;;4897481;29;20040;-70
2021/07/15 11:53:19;;;;;;;7.30;3.40;;;26.30;95.10;;;;;;4897167;29;20055;-72
2021/07/15 11:55:47;;;;;;;19.52;3.13;;;26.30;95.60;;;;;;4871307;29;20024;-72
2021/07/15 11:58:42;;;;;;;3.88;3.42;;;26.40;95.00;;;;;;4897570;29;20400;-72
2021/07/15 12:01:32;;;;;;;5.50;3.67;;;26.40;94.10;;;;;;4897374;29;20032;-72
2021/07/15 12:04:04;;;;;;;9.48;3.80;;;26.50;94.80;;;;;;4897731;29;20024;-73
2021/07/15 12:06:42;;;;;;;8.68;3.72;;;26.50;94.20;;;;;;4896187;29;20075;-72
2021/07/15 12:09:14;;;;;;;3.58;3.05;;;26.40;94.10;;;;;;4898749;29;20022;-71
2021/07/15 12:11:42;;;;;;;3.78;3.15;;;26.40;94.00;;;;;;4899876;29;20658;-75
2021/07/15 12:14:09;;;;;;;7.03;3.63;;;26.40;94.10;;;;;;4897334;29;20178;-74
2021/07/15 12:16:37;;;;;;;5.93;3.50;;;26.40;94.00;;;;;;4896742;29;20060;-75
2021/07/15 12:19:05;;;;;;;5.30;3.30;;;26.50;94.30;;;;;;4896741;29;20029;-76
2021/07/15 12:21:31;;;;;;;6.22;3.08;;;26.50;94.50;;;;;;4896948;29;20154;-74
2021/07/15 12:24:09;;;;;;;7.07;3.08;;;26.50;94.10;;;;;;4897156;29;20021;-76
2021/07/15 12:26:35;;;;;;;3.20;2.90;;;26.50;93.50;;;;;;4896577;29;20495;-71
2021/07/15 12:29:03;;;;;;;3.40;2.75;;;26.50;93.00;;;;;;4896970;29;20028;-73
2021/07/15 12:31:31;;;;;;;3.80;3.00;;;26.40;93.00;;;;;;4895772;29;20043;-73
2021/07/15 12:34:05;;;;;;;3.00;2.70;;;26.30;92.90;;;;;;4895843;29;20016;-73
2021/07/15 12:36:32;;;;;;;7.18;3.05;;;26.30;92.40;;;;;;4896886;29;20057;-73
2021/07/15 12:39:02;;;;;;;12.15;3.35;;;26.30;92.80;;;;;;4896935;29;20028;-73
2021/07/15 12:41:37;;;;;;;17.77;3.97;;;26.40;92.50;;;;;;4897115;29;20029;-72
2021/07/15 12:44:21;;;;;;;7.97;3.40;;;26.50;92.30;;;;;;4896921;29;20365;-73
2021/07/15 12:46:53;;;;;;;6.53;3.35;;;26.50;92.80;;;;;;4896644;29;20025;-73
2021/07/15 12:49:23;;;;;;;117.85;6.30;;;26.60;93.20;;;;;;4896564;29;20092;-73
2021/07/15 12:51:51;;;;;;;6.57;3.50;;;26.70;93.80;;;;;;4896339;29;20044;-72
2021/07/15 12:54:33;;;;;;;7.25;3.03;;;26.70;93.20;;;;;;4896659;29;20047;-73
2021/07/15 12:57:01;;;;;;;18.10;3.70;;;26.70;92.90;;;;;;4888643;29;20036;-71
2021/07/15 12:59:27;;;;;;;7.10;3.00;;;26.70;93.10;;;;;;4896229;29;20036;-71
2021/07/15 13:01:53;;;;;;;3.40;3.00;;;26.70;92.80;;;;;;4896784;29;20064;-72
2021/07/15 13:04:21;;;;;;;6.22;2.63;;;26.70;92.70;;;;;;4896978;29;20487;-72
2021/07/15 13:06:52;;;;;;;9.18;3.17;;;26.60;92.40;;;;;;4896328;29;20119;-72
2021/07/15 13:15:10;;;;;;;3.55;3.20;;;26.70;91.90;;;;;;4895700;29;20035;-72
2021/07/15 13:17:49;;;;;;;11.10;3.73;;;26.80;91.80;;;;;;4896472;29;20033;-71
2021/07/15 13:20:19;;;;;;;3.70;2.80;;;26.80;91.70;;;;;;4898803;29;20324;-68
2021/07/15 13:22:48;;;;;;;4.75;2.88;;;26.80;91.20;;;;;;4899826;29;20032;-71
2021/07/15 13:25:16;;;;;;;2.97;2.75;;;26.70;90.90;;;;;;4899322;29;20119;-69
2021/07/15 13:27:43;;;;;;;3.20;2.90;;;26.60;91.00;;;;;;4899419;29;20032;-69
2021/07/15 13:30:11;;;;;;;7.68;2.90;;;26.50;91.10;;;;;;4899726;29;20063;-69
2021/07/15 13:32:38;;;;;;;3.95;2.78;;;26.40;91.10;;;;;;4897044;29;20040;-69
2021/07/15 13:35:11;;;;;;;5.45;2.97;;;26.40;91.60;;;;;;4899660;29;20033;-69
2021/07/15 13:37:37;;;;;;;3.92;3.08;;;26.30;91.80;;;;;;4882470;29;20112;-69
2021/07/15 13:40:23;;;;;;;3.85;2.78;;;26.30;92.20;;;;;;4899454;29;20025;-69